Strona główna
METAR-TAF:

METAR-TAF

Lotnisko :

Port lotniczy Sztokholm-Bromma

Sztokholm, Szwecja

Szerokość geograficzna: 59-21N, Długość geograficzna: 017-57E, wysokość: 14 m

Aktualna obserwacja pogody

Raport powstał 43 minut temu, godzina 03:50 UTC
Wiatr 3 kt od północ, zmienny między północno-północny zachód i północny wschód
Temperatura 6°C
Wilgotność 70%
Ciśnienie 1010 hPa
Widzialność 10 km lub więcej

METAR: ESSB 090350Z AUTO 36003KT 340V040 9999 FEW082/// 06/01 Q1010

czas: 06:33 (04:33 UTC)

Prognoza

Raport powstał 11 godziny i 3 minut temu, godzina 17:30 UTC
Prognoza ważna od 08 godzina 18 UTC do 08 godzina 21 UTC
Wiatr 9 kt od południowy zachód
Widzialność 10 km lub więcej
Brak chmur poniżej 1500 m i brak chmur cumulonimbus

TAF: ESSB 081730Z 0818/0821 23009KT CAVOK

Obserwacja i prognoza pogody dla ponad 4000 lotnisk (raport METAR i TAF).

Dostępne stacje oznaczono żółtymi i czerwonymi punktami na mapie.

Najedź kursorem aby zobaczyć nazwę stacji.

Kliknij aby zobaczyć obserwacje i prognozy pogody.

Aby zmienić mapę: kliknij na zielony przycisk z czarnym krzyżykiem, aby powiększyć; na zielony przycisk z myślnikiem, aby pomniejszyć; na zielone strzałki, aby przejść do map sąsiednich.


METAR-TAF: